Blue Island, Illinois
Current Conditions -  °F | °C
As of 7:53 AM on Wednesday 26 Nov 2014 (Local Time) from KMDW Reporting Station
Overcast Overcast  
Wind Chill: 19°   Ceiling: 1600
Heat Index: 26°   Visibility: 7mi
Dew Point: 20°   Wind: 6mph
Humidity: 78%   Direction: 190°S
Pressure: 30.16"   Gusts: NA
Location:  41.66°N, 87.68°W
Report Text: KMDW 261353Z 19005KT 7SM OVC016 M03/M07 A3016 RMK AO2 SLP229 T10331067
Loading
Personal Weather Stations






























Interactive Weather Map New forecast layout! Learn more

10-Day Weather Forecast

Advertisements
Track Severe Weather on mobile